Impacts METAR Board
IDs:

KSTL - St Louis/Lambert Int, MO, US

Updated at: 1900 UTC 02 Oct 2022
Potential Impact None Slight Moderate High
Time 02/07Z 02/08Z 02/09Z 02/10Z 02/11Z 02/12Z 02/13Z 02/14Z 02/15Z 02/16Z 02/17Z 02/18Z 02/19Z
Temp57 55 55 52 51 50 53 56 61 66 69 74 75
Dewpt42 42 43 43 43 43 46 46 48 48 49 46 46
Altim30.22 30.22 30.22 30.23 30.24 30.26 30.28 30.29 30.30 30.30 30.30 30.29 30.27
VIS10 10 10 10 10 10 10 10 10 10 10 10 10
CIG-- -- -- -- -- -- -- -- -- -- -- -- --
CoverCLRCLRCLRCLRCLRCLRCLRCLRCLRCLRCLRCLRCLR
FltCatVFRVFRVFRVFRVFRVFRVFRVFRVFRVFRVFRVFRVFR
WX--------------------------
WDir7003003600340500001040
WSpd5 0 4 0 3 0 3 4 0 0 0 11 7
WGst-- -- -- -- -- -- -- -- -- -- -- -- --
Raw hourly METARs
KSTL 020651Z 07005KT 10SM CLR 14/06 A3022 RMK AO2 SLP227 T01390056
KSTL 020751Z 00000KT 10SM CLR 13/06 A3022 RMK AO2 SLP229 T01280056
KSTL 020851Z 03004KT 10SM CLR 13/06 A3022 RMK AO2 SLP229 T01280061 50004
KSTL 020951Z 00000KT 10SM CLR 11/06 A3023 RMK AO2 SLP230 T01110061
KSTL 021051Z 36003KT 10SM CLR 11/06 A3024 RMK AO2 SLP236 T01060061
KSTL 021151Z 00000KT 10SM CLR 10/06 A3026 RMK AO2 SLP243 T01000061 10150 20094 53012
KSTL 021251Z 34003KT 10SM CLR 12/08 A3028 RMK AO2 SLP249 T01170078
KSTL 021351Z 05004KT 10SM CLR 13/08 A3029 RMK AO2 SLP254 T01330078
KSTL 021451Z 00000KT 10SM CLR 16/09 A3030 RMK AO2 SLP256 T01610089 51014
KSTL 021551Z 00000KT 10SM CLR 19/09 A3030 RMK AO2 SLP257 T01890089
KSTL 021651Z 00000KT 10SM CLR 21/09 A3030 RMK AO2 SLP256 T02060094
KSTL 021751Z 01011KT 10SM CLR 23/08 A3029 RMK AO2 SLP252 T02330078 10233 20100 58002
KSTL 021851Z 04007KT 10SM CLR 24/08 A3027 RMK AO2 SLP246 T02390078



Page loaded:  19:27 UTC  |   12:27 PM Pacific  |   01:27 PM Mountain  |   02:27 PM Central  |   03:27 PM Eastern

 

ADVISORIES

FORECASTS

FORECASTS

OBSERVATIONS

USER TOOLS

ABOUT US